createdAt,value
2023-03-29T00:00:13.142Z,1017.78
2023-03-29T00:01:35.975Z,1017.80
2023-03-29T00:02:13.633Z,1017.73
2023-03-29T00:03:13.664Z,1017.72
2023-03-29T00:04:13.753Z,1017.69
2023-03-29T00:05:12.849Z,1017.68
2023-03-29T00:06:13.876Z,1017.67
2023-03-29T00:07:14.103Z,1017.66
2023-03-29T00:08:13.149Z,1017.68
2023-03-29T00:09:12.986Z,1017.64
2023-03-29T00:10:12.963Z,1017.66
2023-03-29T00:11:12.975Z,1017.62
2023-03-29T00:12:12.948Z,1017.63
2023-03-29T00:13:12.905Z,1017.59
2023-03-29T00:14:13.081Z,1017.59
2023-03-29T00:15:13.049Z,1017.56
2023-03-29T00:16:12.991Z,1017.51
2023-03-29T00:17:13.065Z,1017.51
2023-03-29T00:18:13.225Z,1017.45
2023-03-29T00:19:13.140Z,1017.41
2023-03-29T00:20:13.267Z,1017.38
2023-03-29T00:21:13.212Z,1017.40
2023-03-29T00:22:13.441Z,1017.40
2023-03-29T00:23:13.775Z,1017.37
2023-03-29T00:24:14.014Z,1017.37
2023-03-29T00:25:13.057Z,1017.36
2023-03-29T00:26:12.887Z,1017.33
2023-03-29T00:27:12.880Z,1017.36
2023-03-29T00:28:12.828Z,1017.40
2023-03-29T00:29:13.831Z,1017.41
2023-03-29T00:30:14.059Z,1017.34
2023-03-29T00:31:13.271Z,1017.36
2023-03-29T00:32:13.487Z,1017.38
2023-03-29T00:33:13.612Z,1017.38
2023-03-29T00:34:13.505Z,1017.37
2023-03-29T00:35:13.746Z,1017.37
2023-03-29T00:36:13.808Z,1017.34
2023-03-29T00:37:14.023Z,1017.33
2023-03-29T00:38:12.834Z,1017.34
2023-03-29T00:39:13.914Z,1017.33
2023-03-29T00:40:12.795Z,1017.33
2023-03-29T00:41:13.987Z,1017.32
2023-03-29T00:42:12.966Z,1017.28
2023-03-29T00:43:12.841Z,1017.25
2023-03-29T00:44:13.812Z,1017.26
2023-03-29T00:45:13.986Z,1017.25
2023-03-29T00:46:12.871Z,1017.24
2023-03-29T00:47:12.851Z,1017.22
2023-03-29T00:48:13.940Z,1017.19
2023-03-29T00:49:12.958Z,1017.15
2023-03-29T00:50:12.835Z,1017.16
2023-03-29T00:51:18.816Z,1017.16
2023-03-29T00:52:14.148Z,1017.12
2023-03-29T00:53:13.129Z,1017.15
2023-03-29T00:54:12.947Z,1017.14
2023-03-29T00:55:12.997Z,1017.10
2023-03-29T00:56:12.824Z,1017.11
2023-03-29T00:57:13.769Z,1017.11
2023-03-29T00:58:13.941Z,1017.10
2023-03-29T00:59:12.950Z,1017.08
2023-03-29T01:00:13.093Z,1017.11
2023-03-29T01:01:13.145Z,1017.07
2023-03-29T01:02:13.072Z,1017.03
2023-03-29T01:03:13.292Z,1017.02
2023-03-29T01:04:13.238Z,1017.02
2023-03-29T01:05:13.349Z,1016.99
2023-03-29T01:06:13.293Z,1016.97
2023-03-29T01:07:13.411Z,1016.94
2023-03-29T01:08:13.546Z,1016.97
2023-03-29T01:09:13.362Z,1016.94
2023-03-29T01:10:13.265Z,1016.92
2023-03-29T01:11:13.583Z,1016.92
2023-03-29T01:12:13.924Z,1016.92
2023-03-29T01:13:13.273Z,1016.90
2023-03-29T01:14:13.168Z,1016.83
2023-03-29T01:15:13.198Z,1016.81
2023-03-29T01:16:13.571Z,1016.81
2023-03-29T01:17:18.896Z,1016.79
2023-03-29T01:18:12.935Z,1016.82
2023-03-29T01:19:13.155Z,1016.85
2023-03-29T01:20:13.123Z,1016.81
2023-03-29T01:21:13.519Z,1016.81
2023-03-29T01:22:13.458Z,1016.78
2023-03-29T01:23:13.442Z,1016.80
2023-03-29T01:24:13.765Z,1016.78
2023-03-29T01:25:13.617Z,1016.74
2023-03-29T01:26:13.559Z,1016.69
2023-03-29T01:27:13.502Z,1016.74
2023-03-29T01:28:13.768Z,1016.70
2023-03-29T01:29:13.713Z,1016.62
2023-03-29T01:30:13.624Z,1016.64
2023-03-29T01:31:13.627Z,1016.63
2023-03-29T01:32:13.653Z,1016.61
2023-03-29T01:33:13.526Z,1016.58
2023-03-29T01:34:13.514Z,1016.62
2023-03-29T01:35:13.610Z,1016.64
2023-03-29T01:36:13.571Z,1016.61
2023-03-29T01:37:13.449Z,1016.61
2023-03-29T01:38:13.745Z,1016.57
2023-03-29T01:39:13.754Z,1016.55
2023-03-29T01:40:13.842Z,1016.51
2023-03-29T01:41:13.787Z,1016.52
2023-03-29T01:42:14.010Z,1016.52
2023-03-29T01:43:13.326Z,1016.43
2023-03-29T01:44:13.402Z,1016.43
2023-03-29T01:45:13.356Z,1016.42
2023-03-29T01:46:13.629Z,1016.42
2023-03-29T01:47:13.959Z,1016.41
2023-03-29T01:48:13.045Z,1016.42
2023-03-29T01:49:13.281Z,1016.38
2023-03-29T01:50:13.260Z,1016.44
2023-03-29T01:51:13.577Z,1016.44
2023-03-29T01:52:13.654Z,1016.43
2023-03-29T01:53:13.813Z,1016.39
2023-03-29T01:54:13.744Z,1016.39
2023-03-29T01:55:13.670Z,1016.26
2023-03-29T01:56:13.584Z,1016.30
2023-03-29T01:57:13.521Z,1016.25
2023-03-29T01:58:13.481Z,1016.31
2023-03-29T01:59:13.444Z,1016.24
2023-03-29T02:00:13.324Z,1016.19
2023-03-29T02:01:13.711Z,1016.21
2023-03-29T02:02:13.769Z,1016.21
2023-03-29T02:03:15.079Z,1016.18
2023-03-29T02:04:13.613Z,1016.15
2023-03-29T02:05:13.906Z,1016.11
2023-03-29T02:06:12.997Z,1016.04
2023-03-29T02:07:13.354Z,1016.05
2023-03-29T02:08:13.837Z,1016.05
2023-03-29T02:09:14.011Z,1016.08
2023-03-29T02:10:13.059Z,1016.11
2023-03-29T02:11:13.431Z,1016.10
2023-03-29T02:12:13.729Z,1016.07
2023-03-29T02:13:13.917Z,1016.13
2023-03-29T02:14:13.158Z,1016.11
2023-03-29T02:15:13.004Z,1016.07
2023-03-29T02:16:13.137Z,1016.13
2023-03-29T02:17:13.144Z,1016.15
2023-03-29T02:18:13.848Z,1016.15
2023-03-29T02:19:13.831Z,1016.08
2023-03-29T02:20:13.759Z,1016.07
2023-03-29T02:21:13.796Z,1016.06
2023-03-29T02:22:13.808Z,1016.13
2023-03-29T02:23:14.008Z,1016.07
2023-03-29T02:24:13.303Z,1016.09
2023-03-29T02:25:13.672Z,1016.13
2023-03-29T02:26:13.751Z,1016.12
2023-03-29T02:27:13.677Z,1016.12
2023-03-29T02:28:13.658Z,1016.11
2023-03-29T02:29:13.744Z,1016.10
2023-03-29T02:30:13.617Z,1016.07
2023-03-29T02:31:13.603Z,1016.07
2023-03-29T02:32:13.590Z,1016.08
2023-03-29T02:33:13.806Z,1016.06
2023-03-29T02:34:13.681Z,1016.05
2023-03-29T02:35:13.900Z,1016.05
2023-03-29T02:36:13.148Z,1016.04
2023-03-29T02:37:13.145Z,1016.00
2023-03-29T02:38:13.220Z,1015.96
2023-03-29T02:39:13.424Z,1016.05
2023-03-29T02:40:13.643Z,1016.07
2023-03-29T02:41:13.975Z,1016.08
2023-03-29T02:42:13.041Z,1016.05
2023-03-29T02:43:13.110Z,1016.00
2023-03-29T02:44:12.878Z,1016.00
2023-03-29T02:45:13.794Z,1015.94
2023-03-29T02:46:13.726Z,1015.95
2023-03-29T02:47:13.719Z,1015.96
2023-03-29T02:48:13.691Z,1015.91
2023-03-29T02:49:14.026Z,1015.88
2023-03-29T02:50:13.057Z,1015.83
2023-03-29T02:51:13.002Z,1015.82
2023-03-29T02:52:12.980Z,1015.80
2023-03-29T02:53:13.722Z,1015.78
2023-03-29T02:54:13.848Z,1015.81
2023-03-29T02:55:13.772Z,1015.80
2023-03-29T02:56:13.982Z,1015.79
2023-03-29T02:57:12.996Z,1015.77
2023-03-29T02:58:13.221Z,1015.78
2023-03-29T02:59:14.303Z,1015.74
2023-03-29T03:00:13.440Z,1015.72
2023-03-29T03:01:13.697Z,1015.72
2023-03-29T03:02:13.998Z,1015.67
2023-03-29T03:03:13.125Z,1015.66
2023-03-29T03:04:13.460Z,1015.67
2023-03-29T03:05:13.645Z,1015.65
2023-03-29T03:06:13.481Z,1015.66
2023-03-29T03:07:13.573Z,1015.65
2023-03-29T03:08:13.630Z,1015.66
2023-03-29T03:09:13.626Z,1015.64
2023-03-29T03:10:13.539Z,1015.61
2023-03-29T03:11:13.793Z,1015.67
2023-03-29T03:12:13.739Z,1015.65
2023-03-29T03:13:13.863Z,1015.67
2023-03-29T03:14:13.863Z,1015.66
2023-03-29T03:15:13.800Z,1015.68
2023-03-29T03:16:13.748Z,1015.66
2023-03-29T03:17:13.792Z,1015.69
2023-03-29T03:18:13.591Z,1015.67
2023-03-29T03:19:13.745Z,1015.69
2023-03-29T03:20:14.138Z,1015.72
2023-03-29T03:21:13.053Z,1015.69
2023-03-29T03:22:13.442Z,1015.70
2023-03-29T03:23:18.327Z,1015.63
2023-03-29T03:24:13.503Z,1015.67
2023-03-29T03:25:13.456Z,1015.65
2023-03-29T03:26:13.349Z,1015.67
2023-03-29T03:27:13.384Z,1015.68
2023-03-29T03:28:13.188Z,1015.61
2023-03-29T03:29:13.282Z,1015.61
2023-03-29T03:30:13.424Z,1015.64
2023-03-29T03:31:13.558Z,1015.65
2023-03-29T03:32:13.767Z,1015.63
2023-03-29T03:33:14.153Z,1015.60
2023-03-29T03:34:13.311Z,1015.62
2023-03-29T03:35:13.602Z,1015.63
2023-03-29T03:36:13.430Z,1015.62
2023-03-29T03:37:13.494Z,1015.63
2023-03-29T03:38:13.670Z,1015.59
2023-03-29T03:39:13.705Z,1015.56
2023-03-29T03:40:14.033Z,1015.58
2023-03-29T03:41:13.048Z,1015.62
2023-03-29T03:42:12.869Z,1015.64
2023-03-29T03:43:13.862Z,1015.59
2023-03-29T03:44:14.024Z,1015.65
2023-03-29T03:45:13.269Z,1015.65
2023-03-29T03:46:13.268Z,1015.68
2023-03-29T03:47:13.688Z,1015.62
2023-03-29T03:48:13.933Z,1015.60
2023-03-29T03:49:12.973Z,1015.62
2023-03-29T03:50:12.933Z,1015.59
2023-03-29T03:51:13.017Z,1015.59
2023-03-29T03:52:13.044Z,1015.66
2023-03-29T03:53:13.305Z,1015.62
2023-03-29T03:54:13.507Z,1015.63
2023-03-29T03:55:13.592Z,1015.58
2023-03-29T03:56:13.709Z,1015.61
2023-03-29T03:57:13.829Z,1015.59
2023-03-29T03:58:13.830Z,1015.55
2023-03-29T03:59:14.233Z,1015.57
2023-03-29T04:00:13.284Z,1015.59
2023-03-29T04:01:13.583Z,1015.56
2023-03-29T04:02:13.666Z,1015.55
2023-03-29T04:03:13.904Z,1015.56
2023-03-29T04:04:13.036Z,1015.57
2023-03-29T04:05:12.955Z,1015.60
2023-03-29T04:06:12.918Z,1015.56
2023-03-29T04:07:12.911Z,1015.62
2023-03-29T04:08:12.793Z,1015.62
2023-03-29T04:09:14.067Z,1015.60
2023-03-29T04:10:12.910Z,1015.60
2023-03-29T04:11:12.767Z,1015.61
2023-03-29T04:12:16.278Z,1015.62
2023-03-29T04:13:13.378Z,1015.61
2023-03-29T04:14:13.452Z,1015.63
2023-03-29T04:15:13.630Z,1015.61
2023-03-29T04:16:14.302Z,1015.61
2023-03-29T04:17:14.066Z,1015.65
2023-03-29T04:18:13.425Z,1015.66
2023-03-29T04:19:13.699Z,1015.59
2023-03-29T04:20:13.609Z,1015.64
2023-03-29T04:21:13.557Z,1015.65
2023-03-29T04:22:13.792Z,1015.60
2023-03-29T04:23:13.957Z,1015.55
2023-03-29T04:24:12.905Z,1015.56
2023-03-29T04:25:13.285Z,1015.57
2023-03-29T04:26:13.550Z,1015.64
2023-03-29T04:27:13.464Z,1015.58
2023-03-29T04:28:13.736Z,1015.59
2023-03-29T04:29:14.124Z,1015.57
2023-03-29T04:30:13.239Z,1015.58
2023-03-29T04:31:13.365Z,1015.55
2023-03-29T04:32:13.766Z,1015.58
2023-03-29T04:33:14.266Z,1015.51
2023-03-29T04:34:13.780Z,1015.57
2023-03-29T04:35:13.903Z,1015.50
2023-03-29T04:36:12.864Z,1015.50
2023-03-29T04:37:13.878Z,1015.49
2023-03-29T04:38:13.870Z,1015.53
2023-03-29T04:39:13.949Z,1015.54
2023-03-29T04:40:13.505Z,1015.52
2023-03-29T04:41:13.479Z,1015.54
2023-03-29T04:42:13.692Z,1015.51
2023-03-29T04:43:13.785Z,1015.49
2023-03-29T04:44:13.719Z,1015.49
2023-03-29T04:45:13.693Z,1015.47
2023-03-29T04:46:14.055Z,1015.43
2023-03-29T04:47:13.398Z,1015.43
2023-03-29T04:48:13.537Z,1015.40
2023-03-29T04:49:13.436Z,1015.44
2023-03-29T04:50:13.333Z,1015.42
2023-03-29T04:51:13.378Z,1015.42
2023-03-29T04:52:13.447Z,1015.41
2023-03-29T04:53:13.351Z,1015.37
2023-03-29T04:54:13.588Z,1015.39
2023-03-29T04:55:13.650Z,1015.37
2023-03-29T04:56:13.532Z,1015.36
2023-03-29T04:57:13.725Z,1015.37
2023-03-29T04:58:14.209Z,1015.35
2023-03-29T04:59:13.453Z,1015.34
2023-03-29T05:00:13.422Z,1015.34
2023-03-29T05:01:13.302Z,1015.34
2023-03-29T05:02:13.290Z,1015.29
2023-03-29T05:03:13.238Z,1015.32
2023-03-29T05:04:13.197Z,1015.31
2023-03-29T05:05:46.920Z,1015.32
2023-03-29T05:06:12.945Z,1015.29
2023-03-29T05:07:12.877Z,1015.31
2023-03-29T05:08:13.159Z,1015.28
2023-03-29T05:09:13.349Z,1015.27
2023-03-29T05:10:13.194Z,1015.25
2023-03-29T05:11:18.181Z,1015.25
2023-03-29T05:12:13.321Z,1015.24
2023-03-29T05:13:13.444Z,1015.24
2023-03-29T05:14:13.398Z,1015.22
2023-03-29T05:15:13.493Z,1015.27
2023-03-29T05:16:13.565Z,1015.26
2023-03-29T05:17:13.571Z,1015.28
2023-03-29T05:18:13.585Z,1015.26
2023-03-29T05:19:14.088Z,1015.31
2023-03-29T05:20:12.993Z,1015.28
2023-03-29T05:21:12.891Z,1015.28
2023-03-29T05:22:12.902Z,1015.31
2023-03-29T05:23:14.169Z,1015.31
2023-03-29T05:24:13.168Z,1015.32
2023-03-29T05:25:13.308Z,1015.34
2023-03-29T05:26:13.373Z,1015.31
2023-03-29T05:27:13.650Z,1015.31
2023-03-29T05:28:13.699Z,1015.30
2023-03-29T05:29:13.770Z,1015.34
2023-03-29T05:30:56.052Z,1015.29
2023-03-29T05:31:14.206Z,1015.28
2023-03-29T05:32:13.274Z,1015.31
2023-03-29T05:33:13.470Z,1015.32
2023-03-29T05:34:13.346Z,1015.26
2023-03-29T05:35:13.456Z,1015.32
2023-03-29T05:36:13.851Z,1015.29
2023-03-29T05:37:13.894Z,1015.35
2023-03-29T05:38:12.845Z,1015.32
2023-03-29T05:39:13.915Z,1015.28
2023-03-29T05:40:12.829Z,1015.25
2023-03-29T05:41:13.939Z,1015.26
2023-03-29T05:42:13.077Z,1015.29
2023-03-29T05:43:14.195Z,1015.24
2023-03-29T05:44:13.309Z,1015.21
2023-03-29T05:45:13.253Z,1015.25
2023-03-29T05:46:13.153Z,1015.31
2023-03-29T05:47:13.158Z,1015.34
2023-03-29T05:48:13.272Z,1015.37
2023-03-29T05:49:13.632Z,1015.34
2023-03-29T05:50:13.646Z,1015.37
2023-03-29T05:51:13.669Z,1015.39
2023-03-29T05:52:13.678Z,1015.38
2023-03-29T05:53:13.762Z,1015.34
2023-03-29T05:54:13.881Z,1015.39
2023-03-29T05:55:12.802Z,1015.39
2023-03-29T05:56:13.718Z,1015.31
2023-03-29T05:57:13.878Z,1015.37
2023-03-29T05:58:12.807Z,1015.35
2023-03-29T05:59:13.876Z,1015.38
2023-03-29T06:00:12.914Z,1015.36
2023-03-29T06:01:12.964Z,1015.38
2023-03-29T06:02:13.279Z,1015.45
2023-03-29T06:03:20.270Z,1015.47
2023-03-29T06:04:13.841Z,1015.48
2023-03-29T06:05:12.841Z,1015.46
2023-03-29T06:06:14.410Z,1015.49
2023-03-29T06:07:13.574Z,1015.40
2023-03-29T06:08:14.071Z,1015.39
2023-03-29T06:09:13.044Z,1015.37
2023-03-29T06:10:13.149Z,1015.37
2023-03-29T06:11:13.426Z,1015.35
2023-03-29T06:12:13.495Z,1015.34
2023-03-29T06:13:13.669Z,1015.31
2023-03-29T06:14:13.700Z,1015.31
2023-03-29T06:15:13.580Z,1015.30
2023-03-29T06:16:13.841Z,1015.28
2023-03-29T06:17:14.051Z,1015.22
2023-03-29T06:18:13.029Z,1015.22
2023-03-29T06:19:12.903Z,1015.24
2023-03-29T06:20:12.959Z,1015.23
2023-03-29T06:21:14.256Z,1015.19
2023-03-29T06:22:14.915Z,1015.23
2023-03-29T06:23:13.297Z,1015.26
2023-03-29T06:24:13.448Z,1015.26
2023-03-29T06:25:13.502Z,1015.27
2023-03-29T06:26:13.385Z,1015.30
2023-03-29T06:27:13.365Z,1015.23
2023-03-29T06:28:13.288Z,1015.23
2023-03-29T06:29:13.277Z,1015.21
2023-03-29T06:30:13.227Z,1015.25
2023-03-29T06:31:13.354Z,1015.29
2023-03-29T06:32:13.321Z,1015.29
2023-03-29T06:33:13.312Z,1015.33
2023-03-29T06:34:14.035Z,1015.33
2023-03-29T06:35:13.291Z,1015.35
2023-03-29T06:36:13.262Z,1015.31
2023-03-29T06:37:13.473Z,1015.33
2023-03-29T06:38:13.531Z,1015.29
2023-03-29T06:39:13.384Z,1015.33
2023-03-29T06:40:13.534Z,1015.31
2023-03-29T06:41:13.957Z,1015.30
2023-03-29T06:42:20.744Z,1015.27
2023-03-29T06:43:13.811Z,1015.28
2023-03-29T06:44:13.651Z,1015.23
2023-03-29T06:45:14.560Z,1015.25
2023-03-29T06:46:13.533Z,1015.24
2023-03-29T06:47:13.770Z,1015.28
2023-03-29T06:48:13.660Z,1015.35
2023-03-29T06:49:13.729Z,1015.34
2023-03-29T06:50:13.827Z,1015.34
2023-03-29T06:51:13.781Z,1015.33
2023-03-29T06:52:13.809Z,1015.30
2023-03-29T06:53:14.080Z,1015.33
2023-03-29T06:54:13.135Z,1015.35
2023-03-29T06:55:13.033Z,1015.37
2023-03-29T06:56:13.483Z,1015.39
2023-03-29T06:57:13.493Z,1015.43
2023-03-29T06:58:13.930Z,1015.43
2023-03-29T06:59:12.909Z,1015.42
2023-03-29T07:00:13.227Z,1015.40
2023-03-29T07:01:13.137Z,1015.42
2023-03-29T07:02:13.392Z,1015.49
2023-03-29T07:03:13.434Z,1015.46
2023-03-29T07:04:13.640Z,1015.43
2023-03-29T07:05:13.729Z,1015.40
2023-03-29T07:06:13.771Z,1015.43
2023-03-29T07:07:14.085Z,1015.39
2023-03-29T07:08:13.364Z,1015.40
2023-03-29T07:09:13.418Z,1015.39
2023-03-29T07:10:13.588Z,1015.38
2023-03-29T07:11:13.397Z,1015.38
2023-03-29T07:12:13.406Z,1015.32
2023-03-29T07:13:13.644Z,1015.33
2023-03-29T07:14:13.747Z,1015.34
2023-03-29T07:15:14.029Z,1015.36
2023-03-29T07:16:13.708Z,1015.38
2023-03-29T07:17:13.195Z,1015.38
2023-03-29T07:18:13.207Z,1015.38
2023-03-29T07:19:13.518Z,1015.35
2023-03-29T07:20:13.757Z,1015.34
2023-03-29T07:21:14.037Z,1015.33
2023-03-29T07:22:13.114Z,1015.35
2023-03-29T07:23:13.204Z,1015.33
2023-03-29T07:24:13.177Z,1015.36
2023-03-29T07:25:13.313Z,1015.40
2023-03-29T07:26:13.479Z,1015.37
2023-03-29T07:27:13.859Z,1015.40
2023-03-29T07:28:14.203Z,1015.38
2023-03-29T07:29:13.162Z,1015.39
2023-03-29T07:30:13.306Z,1015.41
2023-03-29T07:31:13.369Z,1015.43
2023-03-29T07:32:13.483Z,1015.43
2023-03-29T07:33:13.958Z,1015.42
2023-03-29T07:34:13.382Z,1015.44
2023-03-29T07:35:13.750Z,1015.41
2023-03-29T07:36:14.165Z,1015.39
2023-03-29T07:37:13.121Z,1015.38
2023-03-29T07:38:13.133Z,1015.43
2023-03-29T07:39:13.572Z,1015.42
2023-03-29T07:40:13.626Z,1015.38
2023-03-29T07:41:13.670Z,1015.39
2023-03-29T07:42:13.609Z,1015.41
2023-03-29T07:43:13.719Z,1015.36
2023-03-29T07:44:13.730Z,1015.44
2023-03-29T07:45:13.708Z,1015.50
2023-03-29T07:46:13.946Z,1015.51
2023-03-29T07:47:12.856Z,1015.51
2023-03-29T07:48:13.774Z,1015.48
2023-03-29T07:49:13.745Z,1015.47
2023-03-29T07:50:14.043Z,1015.42
2023-03-29T07:51:13.037Z,1015.44
2023-03-29T07:52:13.008Z,1015.48
2023-03-29T07:53:13.303Z,1015.52
2023-03-29T07:54:13.199Z,1015.53
2023-03-29T07:55:13.246Z,1015.56
2023-03-29T07:56:13.329Z,1015.55
2023-03-29T07:57:13.573Z,1015.56
2023-03-29T07:58:13.561Z,1015.53
2023-03-29T07:59:13.409Z,1015.60
2023-03-29T08:00:13.330Z,1015.53
2023-03-29T08:01:16.467Z,1015.54
2023-03-29T08:02:13.338Z,1015.54
2023-03-29T08:03:13.690Z,1015.53
2023-03-29T08:04:13.756Z,1015.57
2023-03-29T08:05:14.000Z,1015.59
2023-03-29T08:06:13.468Z,1015.56
2023-03-29T08:07:13.552Z,1015.57
2023-03-29T08:08:13.404Z,1015.61
2023-03-29T08:09:13.594Z,1015.53
2023-03-29T08:10:13.892Z,1015.54
2023-03-29T08:11:12.834Z,1015.55
2023-03-29T08:12:14.130Z,1015.51
2023-03-29T08:13:13.496Z,1015.50
2023-03-29T08:14:13.975Z,1015.51
2023-03-29T08:15:13.476Z,1015.48
2023-03-29T08:16:13.454Z,1015.43
2023-03-29T08:17:13.429Z,1015.40
2023-03-29T08:18:13.478Z,1015.42
2023-03-29T08:19:13.424Z,1015.39
2023-03-29T08:20:13.367Z,1015.40
2023-03-29T08:21:13.304Z,1015.42
2023-03-29T08:22:13.234Z,1015.40
2023-03-29T08:23:13.248Z,1015.41
2023-03-29T08:24:13.565Z,1015.37
2023-03-29T08:25:13.640Z,1015.38
2023-03-29T08:26:13.657Z,1015.36
2023-03-29T08:27:13.502Z,1015.32
2023-03-29T08:28:13.369Z,1015.37
2023-03-29T08:29:14.011Z,1015.39
2023-03-29T08:30:13.635Z,1015.35
2023-03-29T08:31:13.752Z,1015.32
2023-03-29T08:32:13.700Z,1015.34
2023-03-29T08:33:13.768Z,1015.34
2023-03-29T08:34:13.689Z,1015.32
2023-03-29T08:35:13.643Z,1015.30
2023-03-29T08:36:13.699Z,1015.26
2023-03-29T08:37:13.526Z,1015.32
2023-03-29T08:38:13.521Z,1015.32
2023-03-29T08:39:13.521Z,1015.35
2023-03-29T08:40:13.512Z,1015.33
2023-03-29T08:41:13.699Z,1015.38
2023-03-29T08:42:13.865Z,1015.38
2023-03-29T08:43:17.344Z,1015.37
2023-03-29T08:44:13.783Z,1015.34
2023-03-29T08:45:14.099Z,1015.40
2023-03-29T08:46:13.242Z,1015.40
2023-03-29T08:47:13.253Z,1015.37
2023-03-29T08:48:13.292Z,1015.33
2023-03-29T08:49:13.835Z,1015.33
2023-03-29T08:50:14.064Z,1015.35
2023-03-29T08:51:12.878Z,1015.35
2023-03-29T08:52:13.778Z,1015.38
2023-03-29T08:53:14.166Z,1015.40
2023-03-29T08:54:13.243Z,1015.38
2023-03-29T08:55:13.067Z,1015.39
2023-03-29T08:56:13.281Z,1015.38
2023-03-29T08:57:13.239Z,1015.41
2023-03-29T08:58:13.223Z,1015.44
2023-03-29T08:59:13.088Z,1015.43
2023-03-29T09:00:13.028Z,1015.46
2023-03-29T09:01:14.337Z,1015.43
2023-03-29T09:02:13.342Z,1015.46
2023-03-29T09:03:13.700Z,1015.47
2023-03-29T09:04:13.773Z,1015.44
2023-03-29T09:05:13.869Z,1015.44
2023-03-29T09:06:14.065Z,1015.45
2023-03-29T09:07:13.193Z,1015.41
2023-03-29T09:08:13.597Z,1015.42
2023-03-29T09:09:13.920Z,1015.41
2023-03-29T09:10:13.216Z,1015.37
2023-03-29T09:11:13.166Z,1015.34
2023-03-29T09:12:13.748Z,1015.38
2023-03-29T09:13:13.869Z,1015.37
2023-03-29T09:14:12.873Z,1015.39
2023-03-29T09:15:13.483Z,1015.39
2023-03-29T09:16:13.506Z,1015.38
2023-03-29T09:17:13.588Z,1015.41
2023-03-29T09:18:18.807Z,1015.38
2023-03-29T09:19:13.860Z,1015.44
2023-03-29T09:20:15.691Z,1015.42
2023-03-29T09:21:13.745Z,1015.40
2023-03-29T09:22:13.768Z,1015.43
2023-03-29T09:23:14.181Z,1015.47
2023-03-29T09:25:12.918Z,1015.46
2023-03-29T09:26:12.833Z,1015.44
2023-03-29T09:27:14.038Z,1015.44
2023-03-29T09:28:13.106Z,1015.47
2023-03-29T09:29:12.952Z,1015.41
2023-03-29T09:30:18.046Z,1015.47
2023-03-29T09:31:13.328Z,1015.44
2023-03-29T09:32:13.566Z,1015.42
2023-03-29T09:33:13.836Z,1015.42
2023-03-29T09:34:14.459Z,1015.44
2023-03-29T09:35:14.217Z,1015.40
2023-03-29T09:36:13.934Z,1015.44
2023-03-29T09:37:13.175Z,1015.40
2023-03-29T09:38:13.215Z,1015.38
2023-03-29T09:39:13.106Z,1015.41
2023-03-29T09:40:13.112Z,1015.40
2023-03-29T09:41:13.498Z,1015.36
2023-03-29T09:42:13.686Z,1015.36
2023-03-29T09:43:13.827Z,1015.36
2023-03-29T09:44:24.182Z,1015.36
2023-03-29T09:45:18.198Z,1015.36
2023-03-29T09:46:13.347Z,1015.31
2023-03-29T09:47:13.361Z,1015.26
2023-03-29T09:48:13.293Z,1015.32
2023-03-29T09:49:14.440Z,1015.31
2023-03-29T09:50:27.296Z,1015.31
2023-03-29T09:51:13.845Z,1015.25
2023-03-29T09:52:13.862Z,1015.24
2023-03-29T09:53:13.796Z,1015.26
2023-03-29T09:54:13.690Z,1015.30
2023-03-29T09:55:13.792Z,1015.23
2023-03-29T09:56:13.796Z,1015.26
2023-03-29T09:57:14.056Z,1015.23
2023-03-29T09:58:36.294Z,1015.24
2023-03-29T09:59:28.026Z,1015.29
2023-03-29T10:00:14.299Z,1015.28
2023-03-29T10:01:13.566Z,1015.28
2023-03-29T10:02:19.451Z,1015.26
2023-03-29T10:03:13.614Z,1015.29
2023-03-29T10:04:16.182Z,1015.28
2023-03-29T10:05:13.332Z,1015.31
2023-03-29T10:06:13.848Z,1015.28
2023-03-29T10:07:14.182Z,1015.23
2023-03-29T10:08:19.766Z,1015.22
2023-03-29T10:09:13.131Z,1015.24
2023-03-29T10:10:13.402Z,1015.28
2023-03-29T10:11:47.219Z,1015.32
2023-03-29T10:13:21.044Z,1015.26
2023-03-29T10:14:18.134Z,1015.24
2023-03-29T10:15:26.606Z,1015.24
2023-03-29T10:16:13.454Z,1015.23
2023-03-29T10:17:13.504Z,1015.21
2023-03-29T10:18:13.702Z,1015.24
2023-03-29T10:19:13.609Z,1015.21
2023-03-29T10:20:13.839Z,1015.22
2023-03-29T10:21:13.866Z,1015.22
2023-03-29T10:22:14.022Z,1015.19
2023-03-29T10:23:12.906Z,1015.20
2023-03-29T10:24:13.165Z,1015.26
2023-03-29T10:25:13.021Z,1015.17
2023-03-29T10:26:12.970Z,1015.17
2023-03-29T10:27:13.063Z,1015.19
2023-03-29T10:28:13.773Z,1015.17
2023-03-29T10:29:13.976Z,1015.20
2023-03-29T10:30:13.019Z,1015.14
2023-03-29T10:31:13.016Z,1015.17
2023-03-29T10:32:13.252Z,1015.17
2023-03-29T10:33:13.376Z,1015.20
2023-03-29T10:34:13.624Z,1015.17
2023-03-29T10:35:13.663Z,1015.18
2023-03-29T10:36:13.600Z,1015.15
2023-03-29T10:37:13.667Z,1015.15
2023-03-29T10:38:13.846Z,1015.22
2023-03-29T10:39:13.994Z,1015.20
2023-03-29T10:40:13.305Z,1015.24
2023-03-29T10:41:13.914Z,1015.26
2023-03-29T10:42:12.968Z,1015.20
2023-03-29T10:43:13.375Z,1015.20
2023-03-29T10:44:13.395Z,1015.18
2023-03-29T10:45:13.545Z,1015.26
2023-03-29T10:46:13.546Z,1015.25
2023-03-29T10:47:13.511Z,1015.21
2023-03-29T10:48:14.147Z,1015.18
2023-03-29T10:49:13.087Z,1015.17
2023-03-29T10:50:13.356Z,1015.15
2023-03-29T10:51:13.524Z,1015.17
2023-03-29T10:52:18.795Z,1015.17
2023-03-29T10:53:13.735Z,1015.16
2023-03-29T10:54:14.086Z,1015.12
2023-03-29T10:55:13.182Z,1015.18
2023-03-29T10:56:13.124Z,1015.18
2023-03-29T10:57:13.076Z,1015.11
2023-03-29T10:58:13.146Z,1015.17
2023-03-29T10:59:13.098Z,1015.16
2023-03-29T11:00:13.286Z,1015.10
2023-03-29T11:01:13.210Z,1015.14
2023-03-29T11:02:13.296Z,1015.10
2023-03-29T11:03:15.803Z,1015.11
2023-03-29T11:04:13.592Z,1015.09
2023-03-29T11:05:13.608Z,1015.03
2023-03-29T11:06:13.941Z,1015.11
2023-03-29T11:07:12.890Z,1015.08
2023-03-29T11:08:13.018Z,1015.04
2023-03-29T11:09:13.232Z,1015.05
2023-03-29T11:10:13.420Z,1015.00
2023-03-29T11:11:13.622Z,1014.98
2023-03-29T11:12:16.401Z,1015.02
2023-03-29T11:13:13.542Z,1015.05
2023-03-29T11:14:13.516Z,1015.05
2023-03-29T11:15:13.562Z,1015.03
2023-03-29T11:16:13.631Z,1015.03
2023-03-29T11:17:13.759Z,1015.04
2023-03-29T11:18:13.684Z,1015.03
2023-03-29T11:19:13.961Z,1015.01
2023-03-29T11:20:12.947Z,1014.98
2023-03-29T11:21:13.144Z,1015.02
2023-03-29T11:22:13.261Z,1015.01
2023-03-29T11:23:13.264Z,1015.01
2023-03-29T11:24:13.113Z,1015.02
2023-03-29T11:25:14.444Z,1015.00
2023-03-29T11:26:13.565Z,1014.98
2023-03-29T11:27:13.724Z,1014.95
2023-03-29T11:28:13.872Z,1014.94
2023-03-29T11:29:13.915Z,1014.91
2023-03-29T11:30:13.142Z,1014.89
2023-03-29T11:31:13.786Z,1014.91
2023-03-29T11:32:14.188Z,1014.93
2023-03-29T11:33:13.192Z,1014.95
2023-03-29T11:34:13.518Z,1014.96
2023-03-29T11:35:13.534Z,1014.90
2023-03-29T11:36:13.925Z,1014.88
2023-03-29T11:37:12.859Z,1014.83
2023-03-29T11:38:13.728Z,1014.81
2023-03-29T11:39:14.046Z,1014.85
2023-03-29T11:40:13.217Z,1014.84
2023-03-29T11:41:13.089Z,1014.83
2023-03-29T11:42:13.382Z,1014.77
2023-03-29T11:43:13.330Z,1014.80
2023-03-29T11:44:13.274Z,1014.77
2023-03-29T11:45:13.726Z,1014.78
2023-03-29T11:46:13.718Z,1014.77
2023-03-29T11:47:13.956Z,1014.74
2023-03-29T11:48:12.912Z,1014.75
2023-03-29T11:49:12.847Z,1014.74
2023-03-29T11:50:14.109Z,1014.76
2023-03-29T11:51:13.455Z,1014.73
2023-03-29T11:52:13.488Z,1014.72
2023-03-29T11:53:13.471Z,1014.76
2023-03-29T11:54:13.635Z,1014.74
2023-03-29T11:55:13.538Z,1014.78
2023-03-29T11:56:13.824Z,1014.78
2023-03-29T11:57:14.109Z,1014.72
2023-03-29T11:58:13.278Z,1014.70
2023-03-29T11:59:13.508Z,1014.67
2023-03-29T12:00:13.599Z,1014.57
2023-03-29T12:01:13.922Z,1014.61
2023-03-29T12:02:13.026Z,1014.58
2023-03-29T12:03:13.204Z,1014.57
2023-03-29T12:04:13.348Z,1014.56
2023-03-29T12:05:13.569Z,1014.60
2023-03-29T12:06:13.882Z,1014.58
2023-03-29T12:07:13.198Z,1014.61